sensor_id;sensor_type;location;lat;lon;timestamp;pressure;altitude;pressure_sealevel;temperature;humidity
80542;BME280;69870;51.460;8.842;2023-09-19T00:02:02;97690.34;;;15.10;83.19
80542;BME280;69870;51.460;8.842;2023-09-19T00:04:31;97686.84;;;15.06;83.06
80542;BME280;69870;51.460;8.842;2023-09-19T00:06:57;97688.44;;;15.04;82.81
80542;BME280;69870;51.460;8.842;2023-09-19T00:09:24;97692.34;;;15.03;82.99
80542;BME280;69870;51.460;8.842;2023-09-19T00:11:53;97687.66;;;15.00;83.12
80542;BME280;69870;51.460;8.842;2023-09-19T00:14:20;97693.91;;;15.00;83.42
80542;BME280;69870;51.460;8.842;2023-09-19T00:16:49;97689.25;;;14.97;83.18
80542;BME280;69870;51.460;8.842;2023-09-19T00:19:17;97689.63;;;14.99;83.67
80542;BME280;69870;51.460;8.842;2023-09-19T00:21:44;97690.00;;;14.98;83.75
80542;BME280;69870;51.460;8.842;2023-09-19T00:24:11;97685.31;;;14.98;83.49
80542;BME280;69870;51.460;8.842;2023-09-19T00:26:38;97694.31;;;14.99;83.85
80542;BME280;69870;51.460;8.842;2023-09-19T00:29:04;97691.97;;;14.97;83.41
80542;BME280;69870;51.460;8.842;2023-09-19T00:31:33;97691.22;;;14.93;83.33
80542;BME280;69870;51.460;8.842;2023-09-19T00:34:03;97687.31;;;14.91;83.46
80542;BME280;69870;51.460;8.842;2023-09-19T00:36:37;97701.38;;;14.93;83.80
80542;BME280;69870;51.460;8.842;2023-09-19T00:39:04;97694.34;;;14.92;83.54
80542;BME280;69870;51.460;8.842;2023-09-19T00:41:31;97706.06;;;14.92;83.32
80542;BME280;69870;51.460;8.842;2023-09-19T00:44:00;97709.59;;;14.89;83.05
80542;BME280;69870;51.460;8.842;2023-09-19T00:46:29;97720.16;;;14.87;83.50
80542;BME280;69870;51.460;8.842;2023-09-19T00:48:56;97726.47;;;14.84;83.29
80542;BME280;69870;51.460;8.842;2023-09-19T00:51:23;97731.94;;;14.81;83.14
80542;BME280;69870;51.460;8.842;2023-09-19T00:53:52;97750.31;;;14.77;83.15
80542;BME280;69870;51.460;8.842;2023-09-19T00:56:19;97744.47;;;14.75;83.05
80542;BME280;69870;51.460;8.842;2023-09-19T00:58:46;97749.19;;;14.71;82.81
80542;BME280;69870;51.460;8.842;2023-09-19T01:01:13;97753.47;;;14.68;82.74
80542;BME280;69870;51.460;8.842;2023-09-19T01:03:41;97759.34;;;14.66;83.06
80542;BME280;69870;51.460;8.842;2023-09-19T01:06:08;97760.13;;;14.67;82.77
80542;BME280;69870;51.460;8.842;2023-09-19T01:08:34;97756.22;;;14.64;83.05
80542;BME280;69870;51.460;8.842;2023-09-19T01:11:13;97760.91;;;14.60;82.75
80542;BME280;69870;51.460;8.842;2023-09-19T01:13:48;97764.06;;;14.59;83.24
80542;BME280;69870;51.460;8.842;2023-09-19T01:16:27;97760.53;;;14.55;82.81
80542;BME280;69870;51.460;8.842;2023-09-19T01:19:01;97767.59;;;14.52;82.90
80542;BME280;69870;51.460;8.842;2023-09-19T01:21:36;97765.63;;;14.49;83.29
80542;BME280;69870;51.460;8.842;2023-09-19T01:24:46;97774.22;;;14.48;83.31
80542;BME280;69870;51.460;8.842;2023-09-19T01:27:40;97785.97;;;14.48;82.62
80542;BME280;69870;51.460;8.842;2023-09-19T01:30:24;97788.72;;;14.48;82.91
80542;BME280;69870;51.460;8.842;2023-09-19T01:32:55;97789.88;;;14.47;82.47
80542;BME280;69870;51.460;8.842;2023-09-19T01:35:22;97798.06;;;14.47;82.74
80542;BME280;69870;51.460;8.842;2023-09-19T01:37:50;97796.53;;;14.46;82.85
80542;BME280;69870;51.460;8.842;2023-09-19T01:40:19;97801.97;;;14.43;82.43
80542;BME280;69870;51.460;8.842;2023-09-19T01:42:50;97791.44;;;14.41;83.02
80542;BME280;69870;51.460;8.842;2023-09-19T01:45:26;97798.47;;;14.39;82.85
80542;BME280;69870;51.460;8.842;2023-09-19T01:48:05;97801.59;;;14.34;82.40
80542;BME280;69870;51.460;8.842;2023-09-19T01:50:42;97795.72;;;14.32;83.29
80542;BME280;69870;51.460;8.842;2023-09-19T01:53:15;97792.19;;;14.28;82.49
80542;BME280;69870;51.460;8.842;2023-09-19T01:55:46;97800.78;;;14.26;82.58
80542;BME280;69870;51.460;8.842;2023-09-19T01:58:19;97792.56;;;14.23;82.72
80542;BME280;69870;51.460;8.842;2023-09-19T02:00:49;97807.81;;;14.20;82.77
80542;BME280;69870;51.460;8.842;2023-09-19T02:03:17;97797.66;;;14.17;83.05
80542;BME280;69870;51.460;8.842;2023-09-19T02:05:48;97805.47;;;14.15;82.94
80542;BME280;69870;51.460;8.842;2023-09-19T02:08:16;97803.91;;;14.11;83.14
80542;BME280;69870;51.460;8.842;2023-09-19T02:10:43;97820.69;;;14.09;83.44
80542;BME280;69870;51.460;8.842;2023-09-19T02:13:15;97821.88;;;14.08;83.24
80542;BME280;69870;51.460;8.842;2023-09-19T02:15:43;97821.09;;;14.08;83.08
80542;BME280;69870;51.460;8.842;2023-09-19T02:18:12;97832.03;;;14.04;83.18
80542;BME280;69870;51.460;8.842;2023-09-19T02:20:39;97832.81;;;14.01;83.62
80542;BME280;69870;51.460;8.842;2023-09-19T02:23:06;97835.16;;;13.99;83.33
80542;BME280;69870;51.460;8.842;2023-09-19T02:25:33;97843.75;;;13.98;83.25
80542;BME280;69870;51.460;8.842;2023-09-19T02:28:00;97835.91;;;13.92;82.72
80542;BME280;69870;51.460;8.842;2023-09-19T02:30:28;97842.94;;;13.90;83.28
80542;BME280;69870;51.460;8.842;2023-09-19T02:32:55;97844.50;;;13.91;83.40
80542;BME280;69870;51.460;8.842;2023-09-19T02:35:23;97839.81;;;13.88;83.11
80542;BME280;69870;51.460;8.842;2023-09-19T02:37:51;97843.69;;;13.87;82.95
80542;BME280;69870;51.460;8.842;2023-09-19T02:40:18;97845.28;;;13.88;82.74
80542;BME280;69870;51.460;8.842;2023-09-19T02:42:48;97846.44;;;13.87;82.49
80542;BME280;69870;51.460;8.842;2023-09-19T02:45:16;97849.16;;;13.83;83.29
80542;BME280;69870;51.460;8.842;2023-09-19T02:47:44;97851.09;;;13.83;82.49
80542;BME280;69870;51.460;8.842;2023-09-19T02:50:11;97846.03;;;13.81;82.53
80542;BME280;69870;51.460;8.842;2023-09-19T02:52:42;97848.38;;;13.79;82.47
80542;BME280;69870;51.460;8.842;2023-09-19T02:55:09;97860.47;;;13.78;82.83
80542;BME280;69870;51.460;8.842;2023-09-19T02:57:37;97843.28;;;13.74;83.24
80542;BME280;69870;51.460;8.842;2023-09-19T03:00:07;97834.28;;;13.74;82.09
80542;BME280;69870;51.460;8.842;2023-09-19T03:02:36;97842.13;;;13.75;82.52
80542;BME280;69870;51.460;8.842;2023-09-19T03:05:04;97846.81;;;13.75;82.03
80542;BME280;69870;51.460;8.842;2023-09-19T03:07:31;97842.88;;;13.76;82.47
80542;BME280;69870;51.460;8.842;2023-09-19T03:09:59;97854.59;;;13.76;82.22
80542;BME280;69870;51.460;8.842;2023-09-19T03:12:26;97844.47;;;13.80;81.51
80542;BME280;69870;51.460;8.842;2023-09-19T03:14:53;97846.81;;;13.82;82.16
80542;BME280;69870;51.460;8.842;2023-09-19T03:17:21;97842.53;;;13.81;81.72
80542;BME280;69870;51.460;8.842;2023-09-19T03:19:47;97852.28;;;13.82;81.61
80542;BME280;69870;51.460;8.842;2023-09-19T03:22:14;97849.13;;;13.80;82.28
80542;BME280;69870;51.460;8.842;2023-09-19T03:24:41;97855.41;;;13.80;81.34
80542;BME280;69870;51.460;8.842;2023-09-19T03:27:10;97857.75;;;13.82;82.35
80542;BME280;69870;51.460;8.842;2023-09-19T03:29:41;97859.72;;;13.81;82.18
80542;BME280;69870;51.460;8.842;2023-09-19T03:32:08;97862.03;;;13.83;81.14
80542;BME280;69870;51.460;8.842;2023-09-19T03:34:36;97868.69;;;13.85;81.98
80542;BME280;69870;51.460;8.842;2023-09-19T03:37:04;97859.34;;;13.86;81.02
80542;BME280;69870;51.460;8.842;2023-09-19T03:39:32;97862.06;;;13.86;81.42
80542;BME280;69870;51.460;8.842;2023-09-19T03:41:59;97860.88;;;13.87;81.75
80542;BME280;69870;51.460;8.842;2023-09-19T03:44:27;97861.69;;;13.88;81.22
80542;BME280;69870;51.460;8.842;2023-09-19T03:46:53;97855.41;;;13.87;81.67
80542;BME280;69870;51.460;8.842;2023-09-19T03:49:21;97857.75;;;13.89;81.56
80542;BME280;69870;51.460;8.842;2023-09-19T03:51:47;97857.00;;;13.88;81.18
80542;BME280;69870;51.460;8.842;2023-09-19T03:54:14;97859.34;;;13.90;81.32
80542;BME280;69870;51.460;8.842;2023-09-19T03:56:42;97865.97;;;13.89;81.56
80542;BME280;69870;51.460;8.842;2023-09-19T03:59:08;97867.94;;;13.88;81.66
80542;BME280;69870;51.460;8.842;2023-09-19T04:01:36;97867.16;;;13.88;81.12
80542;BME280;69870;51.460;8.842;2023-09-19T04:04:03;97867.91;;;13.85;80.86
80542;BME280;69870;51.460;8.842;2023-09-19T04:06:35;97874.56;;;13.84;81.08
80542;BME280;69870;51.460;8.842;2023-09-19T04:09:01;97874.91;;;13.82;81.21
80542;BME280;69870;51.460;8.842;2023-09-19T04:11:29;97879.63;;;13.82;80.98
80542;BME280;69870;51.460;8.842;2023-09-19T04:13:56;97874.16;;;13.82;81.28
80542;BME280;69870;51.460;8.842;2023-09-19T04:16:22;97869.47;;;13.79;81.14
80542;BME280;69870;51.460;8.842;2023-09-19T04:18:50;97874.94;;;13.79;81.35
80542;BME280;69870;51.460;8.842;2023-09-19T04:21:17;97885.84;;;13.79;81.07
80542;BME280;69870;51.460;8.842;2023-09-19T04:23:44;97885.06;;;13.78;81.10
80542;BME280;69870;51.460;8.842;2023-09-19T04:26:11;97876.06;;;13.74;81.15
80542;BME280;69870;51.460;8.842;2023-09-19T04:28:38;97880.41;;;13.75;81.03
80542;BME280;69870;51.460;8.842;2023-09-19T04:31:06;97875.28;;;13.74;80.46
80542;BME280;69870;51.460;8.842;2023-09-19T04:33:34;97883.09;;;13.72;80.38
80542;BME280;69870;51.460;8.842;2023-09-19T04:36:02;97880.34;;;13.68;80.97
80542;BME280;69870;51.460;8.842;2023-09-19T04:38:30;97880.72;;;13.67;81.06
80542;BME280;69870;51.460;8.842;2023-09-19T04:40:57;97881.50;;;13.64;80.99
80542;BME280;69870;51.460;8.842;2023-09-19T04:43:24;97888.13;;;13.63;81.07
80542;BME280;69870;51.460;8.842;2023-09-19T04:45:50;97886.59;;;13.62;81.15
80542;BME280;69870;51.460;8.842;2023-09-19T04:48:21;97894.38;;;13.60;80.59
80542;BME280;69870;51.460;8.842;2023-09-19T04:50:49;97893.19;;;13.57;80.80
80542;BME280;69870;51.460;8.842;2023-09-19T04:53:17;97906.84;;;13.57;80.55
80542;BME280;69870;51.460;8.842;2023-09-19T04:55:49;97910.75;;;13.56;80.21
80542;BME280;69870;51.460;8.842;2023-09-19T04:58:16;97908.81;;;13.53;80.43
80542;BME280;69870;51.460;8.842;2023-09-19T05:00:43;97906.03;;;13.50;80.13
80542;BME280;69870;51.460;8.842;2023-09-19T05:03:10;97902.09;;;13.47;79.79
80542;BME280;69870;51.460;8.842;2023-09-19T05:05:36;97907.56;;;13.44;80.76
80542;BME280;69870;51.460;8.842;2023-09-19T05:08:04;97914.59;;;13.45;80.56
80542;BME280;69870;51.460;8.842;2023-09-19T05:10:32;97909.91;;;13.42;79.83
80542;BME280;69870;51.460;8.842;2023-09-19T05:12:59;97910.25;;;13.40;79.42
80542;BME280;69870;51.460;8.842;2023-09-19T05:15:26;97921.97;;;13.41;79.32
80542;BME280;69870;51.460;8.842;2023-09-19T05:17:53;97920.03;;;13.38;79.38
80542;BME280;69870;51.460;8.842;2023-09-19T05:20:20;97925.09;;;13.39;79.44
80542;BME280;69870;51.460;8.842;2023-09-19T05:22:50;97927.03;;;13.39;79.92
80542;BME280;69870;51.460;8.842;2023-09-19T05:25:17;97931.34;;;13.40;79.79
80542;BME280;69870;51.460;8.842;2023-09-19T05:27:45;97934.44;;;13.38;78.85
80542;BME280;69870;51.460;8.842;2023-09-19T05:30:12;97939.56;;;13.40;79.10
80542;BME280;69870;51.460;8.842;2023-09-19T05:32:41;97939.56;;;13.40;79.36
80542;BME280;69870;51.460;8.842;2023-09-19T05:35:09;97937.97;;;13.42;78.37
80542;BME280;69870;51.460;8.842;2023-09-19T05:37:35;97948.16;;;13.42;78.53
80542;BME280;69870;51.460;8.842;2023-09-19T05:40:03;97949.69;;;13.43;77.74
80542;BME280;69870;51.460;8.842;2023-09-19T05:42:35;97950.50;;;13.43;77.71
80542;BME280;69870;51.460;8.842;2023-09-19T05:45:04;97958.34;;;13.48;77.77
80542;BME280;69870;51.460;8.842;2023-09-19T05:47:31;97956.34;;;13.45;77.25
80542;BME280;69870;51.460;8.842;2023-09-19T05:49:57;97963.00;;;13.48;77.78
80542;BME280;69870;51.460;8.842;2023-09-19T05:52:24;97973.94;;;13.48;77.64
80542;BME280;69870;51.460;8.842;2023-09-19T05:54:51;97976.31;;;13.53;76.96
80542;BME280;69870;51.460;8.842;2023-09-19T05:57:18;97980.22;;;13.55;76.83
80542;BME280;69870;51.460;8.842;2023-09-19T05:59:45;97978.66;;;13.58;77.74
80542;BME280;69870;51.460;8.842;2023-09-19T06:02:13;97983.38;;;13.61;76.59
80542;BME280;69870;51.460;8.842;2023-09-19T06:04:40;97993.16;;;13.65;76.57
80542;BME280;69870;51.460;8.842;2023-09-19T06:07:07;97998.63;;;13.69;76.52
80542;BME280;69870;51.460;8.842;2023-09-19T06:09:33;98001.38;;;13.69;76.47
80542;BME280;69870;51.460;8.842;2023-09-19T06:12:00;98004.09;;;13.69;76.12
80542;BME280;69870;51.460;8.842;2023-09-19T06:14:28;98006.88;;;13.72;77.00
80542;BME280;69870;51.460;8.842;2023-09-19T06:16:56;98012.34;;;13.72;76.04
80542;BME280;69870;51.460;8.842;2023-09-19T06:19:24;98018.22;;;13.78;76.32
80542;BME280;69870;51.460;8.842;2023-09-19T06:21:52;98022.94;;;13.81;75.78
80542;BME280;69870;51.460;8.842;2023-09-19T06:24:19;98026.84;;;13.83;75.74
80542;BME280;69870;51.460;8.842;2023-09-19T06:26:46;98021.38;;;13.87;76.27
80542;BME280;69870;51.460;8.842;2023-09-19T06:29:13;98022.22;;;13.94;75.69
80542;BME280;69870;51.460;8.842;2023-09-19T06:31:40;98025.38;;;14.00;75.59
80542;BME280;69870;51.460;8.842;2023-09-19T06:34:07;98031.66;;;14.08;76.17
80542;BME280;69870;51.460;8.842;2023-09-19T06:36:35;98039.09;;;14.14;75.77
80542;BME280;69870;51.460;8.842;2023-09-19T06:39:01;98036.81;;;14.23;75.22
80542;BME280;69870;51.460;8.842;2023-09-19T06:41:29;98040.41;;;14.31;75.49
80542;BME280;69870;51.460;8.842;2023-09-19T06:44:02;98037.69;;;14.41;74.93
80542;BME280;69870;51.460;8.842;2023-09-19T06:46:28;98038.50;;;14.52;74.65
80542;BME280;69870;51.460;8.842;2023-09-19T06:48:58;98038.13;;;14.64;74.65
80542;BME280;69870;51.460;8.842;2023-09-19T06:51:24;98028.41;;;14.74;74.93
80542;BME280;69870;51.460;8.842;2023-09-19T06:53:52;98038.56;;;14.81;74.40
80542;BME280;69870;51.460;8.842;2023-09-19T06:56:19;98039.34;;;14.85;74.76
80542;BME280;69870;51.460;8.842;2023-09-19T06:58:50;98040.16;;;14.89;74.15
80542;BME280;69870;51.460;8.842;2023-09-19T07:01:17;98040.94;;;14.89;73.53
80542;BME280;69870;51.460;8.842;2023-09-19T07:03:44;98039.75;;;14.94;73.54
80542;BME280;69870;51.460;8.842;2023-09-19T07:06:11;98035.47;;;14.96;73.85
80542;BME280;69870;51.460;8.842;2023-09-19T07:08:38;98036.28;;;15.04;73.52
80542;BME280;69870;51.460;8.842;2023-09-19T07:11:06;98036.28;;;15.14;73.63
80542;BME280;69870;51.460;8.842;2023-09-19T07:13:33;98040.59;;;15.15;73.64
80542;BME280;69870;51.460;8.842;2023-09-19T07:16:00;98037.84;;;15.22;73.07
80542;BME280;69870;51.460;8.842;2023-09-19T07:18:27;98033.16;;;15.30;73.03
80542;BME280;69870;51.460;8.842;2023-09-19T07:20:56;98042.94;;;15.41;72.74
80542;BME280;69870;51.460;8.842;2023-09-19T07:23:26;98032.78;;;15.53;72.15
80542;BME280;69870;51.460;8.842;2023-09-19T07:25:56;98028.84;;;15.64;72.28
80542;BME280;69870;51.460;8.842;2023-09-19T07:28:25;98039.38;;;15.76;72.04
80542;BME280;69870;51.460;8.842;2023-09-19T07:30:52;98034.69;;;15.84;71.68
80542;BME280;69870;51.460;8.842;2023-09-19T07:33:19;98044.06;;;15.90;71.34
80542;BME280;69870;51.460;8.842;2023-09-19T07:35:46;98043.25;;;16.03;71.41
80542;BME280;69870;51.460;8.842;2023-09-19T07:38:12;98038.50;;;16.14;69.96
80542;BME280;69870;51.460;8.842;2023-09-19T07:40:39;98045.53;;;16.23;70.21
80542;BME280;69870;51.460;8.842;2023-09-19T07:43:06;98047.06;;;16.34;69.42
80542;BME280;69870;51.460;8.842;2023-09-19T07:45:35;98041.13;;;16.46;68.84
80542;BME280;69870;51.460;8.842;2023-09-19T07:48:02;98046.22;;;16.55;68.81
80542;BME280;69870;51.460;8.842;2023-09-19T07:50:33;98051.31;;;16.60;68.96
80542;BME280;69870;51.460;8.842;2023-09-19T07:53:02;98052.06;;;16.64;68.61
80542;BME280;69870;51.460;8.842;2023-09-19T07:55:30;98050.88;;;16.65;68.72
80542;BME280;69870;51.460;8.842;2023-09-19T07:57:59;98051.31;;;16.60;68.39
80542;BME280;69870;51.460;8.842;2023-09-19T08:00:25;98054.84;;;16.53;68.50
80542;BME280;69870;51.460;8.842;2023-09-19T08:02:53;98060.31;;;16.50;68.43
80542;BME280;69870;51.460;8.842;2023-09-19T08:05:21;98063.47;;;16.52;68.52
80542;BME280;69870;51.460;8.842;2023-09-19T08:07:47;98069.34;;;16.57;68.38
80542;BME280;69870;51.460;8.842;2023-09-19T08:10:15;98072.03;;;16.64;68.29
80542;BME280;69870;51.460;8.842;2023-09-19T08:12:45;98072.47;;;16.66;68.05
80542;BME280;69870;51.460;8.842;2023-09-19T08:15:13;98068.50;;;16.71;68.15
80542;BME280;69870;51.460;8.842;2023-09-19T08:17:40;98081.00;;;16.79;67.72
80542;BME280;69870;51.460;8.842;2023-09-19T08:20:09;98067.63;;;16.88;67.51
80542;BME280;69870;51.460;8.842;2023-09-19T08:22:43;98066.69;;;17.12;67.26
80542;BME280;69870;51.460;8.842;2023-09-19T08:25:13;98058.25;;;17.37;66.78
80542;BME280;69870;51.460;8.842;2023-09-19T08:27:39;98069.09;;;17.62;66.28
80542;BME280;69870;51.460;8.842;2023-09-19T08:30:06;98058.41;;;17.71;65.20
80542;BME280;69870;51.460;8.842;2023-09-19T08:32:33;98061.09;;;17.74;64.90
80542;BME280;69870;51.460;8.842;2023-09-19T08:35:00;98060.19;;;17.88;64.38
80542;BME280;69870;51.460;8.842;2023-09-19T08:37:27;98075.00;;;18.01;64.28
80542;BME280;69870;51.460;8.842;2023-09-19T08:39:54;98061.97;;;18.05;64.14
80542;BME280;69870;51.460;8.842;2023-09-19T08:42:21;98070.69;;;18.00;64.41
80542;BME280;69870;51.460;8.842;2023-09-19T08:44:49;98064.84;;;17.94;64.40
80542;BME280;69870;51.460;8.842;2023-09-19T08:47:19;98064.47;;;17.92;64.75
80542;BME280;69870;51.460;8.842;2023-09-19T08:49:53;98053.03;;;17.94;64.75
80542;BME280;69870;51.460;8.842;2023-09-19T08:52:32;98052.84;;;18.11;63.60
80542;BME280;69870;51.460;8.842;2023-09-19T08:55:06;98063.19;;;18.38;63.28
80542;BME280;69870;51.460;8.842;2023-09-19T08:57:36;98057.72;;;18.68;62.28
80542;BME280;69870;51.460;8.842;2023-09-19T09:00:05;98056.44;;;19.02;60.38
80542;BME280;69870;51.460;8.842;2023-09-19T09:02:37;98059.59;;;19.28;59.93
80542;BME280;69870;51.460;8.842;2023-09-19T09:05:07;98054.91;;;19.51;59.71
80542;BME280;69870;51.460;8.842;2023-09-19T09:07:35;98070.44;;;19.65;59.75
80542;BME280;69870;51.460;8.842;2023-09-19T09:10:02;98074.94;;;19.79;58.23
80542;BME280;69870;51.460;8.842;2023-09-19T09:12:29;98061.50;;;19.81;57.67
80542;BME280;69870;51.460;8.842;2023-09-19T09:14:56;98061.69;;;19.70;57.83
80542;BME280;69870;51.460;8.842;2023-09-19T09:17:23;98073.50;;;19.47;58.12
80542;BME280;69870;51.460;8.842;2023-09-19T09:19:52;98072.84;;;19.63;57.77
80542;BME280;69870;51.460;8.842;2023-09-19T09:22:19;98077.25;;;19.84;57.67
80542;BME280;69870;51.460;8.842;2023-09-19T09:24:54;98079.84;;;20.14;57.19
80542;BME280;69870;51.460;8.842;2023-09-19T09:27:23;98075.84;;;20.38;56.54
80542;BME280;69870;51.460;8.842;2023-09-19T09:29:51;98091.66;;;20.37;57.23
80542;BME280;69870;51.460;8.842;2023-09-19T09:32:21;98083.56;;;20.27;56.22
80542;BME280;69870;51.460;8.842;2023-09-19T09:34:49;98074.00;;;20.31;56.03
80542;BME280;69870;51.460;8.842;2023-09-19T09:37:17;98088.03;;;20.40;55.82
80542;BME280;69870;51.460;8.842;2023-09-19T09:39:54;98083.03;;;20.55;55.48
80542;BME280;69870;51.460;8.842;2023-09-19T09:42:30;98076.53;;;20.81;53.72
80542;BME280;69870;51.460;8.842;2023-09-19T09:45:14;98091.50;;;20.84;53.96
80542;BME280;69870;51.460;8.842;2023-09-19T09:47:42;98090.28;;;20.85;52.84
80542;BME280;69870;51.460;8.842;2023-09-19T09:50:23;98098.56;;;21.04;53.05
80542;BME280;69870;51.460;8.842;2023-09-19T09:52:55;98091.50;;;21.03;53.08
80542;BME280;69870;51.460;8.842;2023-09-19T09:55:27;98097.38;;;20.86;53.56
80542;BME280;69870;51.460;8.842;2023-09-19T09:58:16;98102.91;;;20.86;53.41
80542;BME280;69870;51.460;8.842;2023-09-19T10:00:52;98091.41;;;21.07;52.21
80542;BME280;69870;51.460;8.842;2023-09-19T10:03:21;98097.41;;;21.22;52.23
80542;BME280;69870;51.460;8.842;2023-09-19T10:05:53;98090.34;;;21.53;52.29
80542;BME280;69870;51.460;8.842;2023-09-19T10:08:21;98099.44;;;21.85;51.85
80542;BME280;69870;51.460;8.842;2023-09-19T10:10:48;98098.31;;;21.99;50.92
80542;BME280;69870;51.460;8.842;2023-09-19T10:13:29;98102.88;;;22.06;51.02
80542;BME280;69870;51.460;8.842;2023-09-19T10:15:59;98095.06;;;22.17;50.52
80542;BME280;69870;51.460;8.842;2023-09-19T10:18:32;98095.06;;;22.17;50.34
80542;BME280;69870;51.460;8.842;2023-09-19T10:21:04;98088.63;;;21.91;50.59
80542;BME280;69870;51.460;8.842;2023-09-19T10:23:33;98083.75;;;21.63;51.25
80542;BME280;69870;51.460;8.842;2023-09-19T10:26:05;98090.16;;;21.28;51.95
80542;BME280;69870;51.460;8.842;2023-09-19T10:28:35;98085.56;;;21.21;52.06
80542;BME280;69870;51.460;8.842;2023-09-19T10:31:03;98086.41;;;21.18;50.96
80542;BME280;69870;51.460;8.842;2023-09-19T10:33:36;98086.03;;;21.00;51.74
80542;BME280;69870;51.460;8.842;2023-09-19T10:36:05;98081.84;;;20.92;52.23
80542;BME280;69870;51.460;8.842;2023-09-19T10:38:33;98070.41;;;20.90;52.12
80542;BME280;69870;51.460;8.842;2023-09-19T10:41:03;98078.53;;;20.81;52.05
80542;BME280;69870;51.460;8.842;2023-09-19T10:43:32;98071.72;;;20.85;52.32
80542;BME280;69870;51.460;8.842;2023-09-19T10:46:01;98077.44;;;20.94;52.31
80542;BME280;69870;51.460;8.842;2023-09-19T10:48:29;98078.44;;;21.04;52.50
80542;BME280;69870;51.460;8.842;2023-09-19T10:51:01;98079.19;;;21.04;52.92
80542;BME280;69870;51.460;8.842;2023-09-19T10:53:40;98083.53;;;21.05;52.75
80542;BME280;69870;51.460;8.842;2023-09-19T10:56:10;98075.31;;;21.02;52.74
80542;BME280;69870;51.460;8.842;2023-09-19T10:58:43;98062.22;;;21.02;52.22
80542;BME280;69870;51.460;8.842;2023-09-19T11:01:11;98067.84;;;20.99;52.62
80542;BME280;69870;51.460;8.842;2023-09-19T11:03:40;98068.00;;;20.92;52.18
80542;BME280;69870;51.460;8.842;2023-09-19T11:06:11;98060.78;;;20.78;52.49
80542;BME280;69870;51.460;8.842;2023-09-19T11:08:56;98076.47;;;20.65;52.30
80542;BME280;69870;51.460;8.842;2023-09-19T11:11:46;98069.41;;;20.64;52.57
80542;BME280;69870;51.460;8.842;2023-09-19T11:14:38;98078.06;;;20.66;52.97
80542;BME280;69870;51.460;8.842;2023-09-19T11:17:30;98083.63;;;20.63;52.99
80542;BME280;69870;51.460;8.842;2023-09-19T11:20:19;98079.81;;;20.57;52.36
80542;BME280;69870;51.460;8.842;2023-09-19T11:23:19;98074.63;;;20.59;52.25
80542;BME280;69870;51.460;8.842;2023-09-19T11:25:50;98071.41;;;20.44;51.97
80542;BME280;69870;51.460;8.842;2023-09-19T11:28:32;98060.69;;;20.26;51.95
80542;BME280;69870;51.460;8.842;2023-09-19T11:31:41;98046.28;;;20.15;52.42
80542;BME280;69870;51.460;8.842;2023-09-19T11:34:42;98047.19;;;20.09;52.30
80542;BME280;69870;51.460;8.842;2023-09-19T11:40:37;98043.34;;;20.26;53.16
80542;BME280;69870;51.460;8.842;2023-09-19T11:43:28;98040.63;;;20.22;51.87
80542;BME280;69870;51.460;8.842;2023-09-19T11:46:05;98036.31;;;20.21;52.64
80542;BME280;69870;51.460;8.842;2023-09-19T11:48:32;98039.09;;;20.18;52.78
80542;BME280;69870;51.460;8.842;2023-09-19T11:51:00;98041.47;;;20.19;52.98
80542;BME280;69870;51.460;8.842;2023-09-19T11:53:33;98033.31;;;20.12;52.96
80542;BME280;69870;51.460;8.842;2023-09-19T11:56:04;98037.34;;;20.08;52.89
80542;BME280;69870;51.460;8.842;2023-09-19T11:58:33;98041.72;;;20.05;52.90
80542;BME280;69870;51.460;8.842;2023-09-19T12:01:00;98036.56;;;20.07;52.58
80542;BME280;69870;51.460;8.842;2023-09-19T12:03:37;98047.47;;;20.14;53.03
80542;BME280;69870;51.460;8.842;2023-09-19T12:06:10;98047.28;;;20.25;53.57
80542;BME280;69870;51.460;8.842;2023-09-19T12:08:40;98054.31;;;20.29;52.94
80542;BME280;69870;51.460;8.842;2023-09-19T12:11:12;98057.84;;;20.30;52.24
80542;BME280;69870;51.460;8.842;2023-09-19T12:13:42;98047.59;;;20.30;52.10
80542;BME280;69870;51.460;8.842;2023-09-19T12:16:12;98048.66;;;20.36;53.02
80542;BME280;69870;51.460;8.842;2023-09-19T12:18:42;98055.22;;;20.42;53.25
80542;BME280;69870;51.460;8.842;2023-09-19T12:21:24;98055.53;;;20.48;53.16
80542;BME280;69870;51.460;8.842;2023-09-19T12:24:13;98065.13;;;20.40;53.36
80542;BME280;69870;51.460;8.842;2023-09-19T12:26:43;98055.78;;;20.34;52.86
80542;BME280;69870;51.460;8.842;2023-09-19T12:29:15;98049.34;;;20.40;52.05
80542;BME280;69870;51.460;8.842;2023-09-19T12:31:53;98038.84;;;20.52;51.58
80542;BME280;69870;51.460;8.842;2023-09-19T12:34:26;98046.09;;;20.45;52.38
80542;BME280;69870;51.460;8.842;2023-09-19T12:37:10;98052.88;;;20.61;51.80
80542;BME280;69870;51.460;8.842;2023-09-19T12:39:42;98040.34;;;20.56;51.49
80542;BME280;69870;51.460;8.842;2023-09-19T12:42:14;98043.59;;;20.51;52.03
80542;BME280;69870;51.460;8.842;2023-09-19T12:44:42;98048.28;;;20.54;51.76
80542;BME280;69870;51.460;8.842;2023-09-19T12:47:13;98047.94;;;20.52;51.45
80542;BME280;69870;51.460;8.842;2023-09-19T12:50:07;98054.25;;;20.53;51.72
80542;BME280;69870;51.460;8.842;2023-09-19T12:52:39;98041.34;;;20.46;52.26
80542;BME280;69870;51.460;8.842;2023-09-19T12:55:06;98045.03;;;20.39;52.36
80542;BME280;69870;51.460;8.842;2023-09-19T12:57:34;98045.09;;;20.36;52.64
80542;BME280;69870;51.460;8.842;2023-09-19T13:00:01;98040.72;;;20.38;52.04
80542;BME280;69870;51.460;8.842;2023-09-19T13:02:28;98041.84;;;20.41;52.66
80542;BME280;69870;51.460;8.842;2023-09-19T13:04:54;98048.56;;;20.40;52.38
80542;BME280;69870;51.460;8.842;2023-09-19T13:07:41;98045.53;;;20.34;52.01
80542;BME280;69870;51.460;8.842;2023-09-19T13:10:12;98033.44;;;20.28;52.07
80542;BME280;69870;51.460;8.842;2023-09-19T13:12:42;98031.59;;;20.22;52.65
80542;BME280;69870;51.460;8.842;2023-09-19T13:15:13;98037.13;;;20.18;52.87
80542;BME280;69870;51.460;8.842;2023-09-19T13:17:44;98030.13;;;20.14;53.24
80542;BME280;69870;51.460;8.842;2023-09-19T13:20:21;98021.91;;;20.10;52.89